DKH1106 ZSAM-ZSPD
Flight info
| Callsign | DKH1106 |
|---|---|
| Flight time | 1h 14m |
| Altitude | 26600 |
| Route | DOVPU W643 FOC W644 ANLUD B221 PAMVU V74 BK |
| Aircraft | A321/M-SDE2E3FGILRWXY/LB2 |
Departure
| Time | 2026-05-04 14:33 |
|---|---|
| Airport | Xiamen Gaoqi International Airport (ZSAM) |
Arrival
| Time | 2026-05-04 15:48 |
|---|---|
| Airport | Shanghai Pudong International Airport (ZSPD) |
| Time | Latitude | Longitude | Altitude | Speed | Heading |
|---|---|---|---|---|---|
| 2026-05-04 14:10 | 24.54822 | 118.13906 | 74 ft | 0 kts | 76° |
| 2026-05-04 14:24 | 24.54822 | 118.13903 | 73 ft | 2 kts | 76° |
| 2026-05-04 14:24 | 24.54817 | 118.13884 | 73 ft | 3 kts | 75° |
| 2026-05-04 14:25 | 24.54811 | 118.13863 | 73 ft | 3 kts | 66° |
| 2026-05-04 14:25 | 24.54790 | 118.13837 | 73 ft | 2 kts | 10° |
| 2026-05-04 14:25 | 24.54773 | 118.13835 | 73 ft | 3 kts | 350° |
| 2026-05-04 14:26 | 24.54754 | 118.13842 | 73 ft | 3 kts | 327° |
| 2026-05-04 14:26 | 24.54742 | 118.13852 | 73 ft | 1 kts | 322° |
| 2026-05-04 14:26 | 24.54741 | 118.13852 | 73 ft | 0 kts | 322° |
| 2026-05-04 14:27 | 24.54749 | 118.13845 | 73 ft | 3 kts | 322° |
| 2026-05-04 14:27 | 24.54776 | 118.13823 | 73 ft | 6 kts | 322° |
| 2026-05-04 14:27 | 24.54819 | 118.13785 | 73 ft | 10 kts | 322° |
| 2026-05-04 14:28 | 24.54874 | 118.13729 | 73 ft | 12 kts | 290° |
| 2026-05-04 14:28 | 24.54836 | 118.13642 | 73 ft | 15 kts | 231° |
| 2026-05-04 14:28 | 24.54765 | 118.13544 | 73 ft | 18 kts | 231° |
| 2026-05-04 14:28 | 24.54681 | 118.13427 | 73 ft | 21 kts | 232° |
| 2026-05-04 14:29 | 24.54488 | 118.13157 | 73 ft | 24 kts | 231° |
| 2026-05-04 14:29 | 24.54288 | 118.12876 | 73 ft | 24 kts | 232° |
| 2026-05-04 14:30 | 24.54197 | 118.12750 | 73 ft | 20 kts | 232° |
| 2026-05-04 14:30 | 24.54104 | 118.12620 | 73 ft | 23 kts | 232° |
| 2026-05-04 14:30 | 24.53925 | 118.12370 | 73 ft | 19 kts | 232° |
| 2026-05-04 14:31 | 24.53839 | 118.12248 | 73 ft | 22 kts | 232° |
| 2026-05-04 14:31 | 24.53663 | 118.12002 | 73 ft | 23 kts | 232° |
| 2026-05-04 14:32 | 24.53489 | 118.11758 | 73 ft | 16 kts | 231° |
| 2026-05-04 14:32 | 24.53467 | 118.11667 | 73 ft | 13 kts | 311° |
| 2026-05-04 14:32 | 24.53542 | 118.11605 | 73 ft | 14 kts | 340° |
| 2026-05-04 14:32 | 24.53606 | 118.11630 | 73 ft | 7 kts | 49° |
| 2026-05-04 14:33 | 24.53677 | 118.11721 | 73 ft | 37 kts | 50° |
| 2026-05-04 14:33 | 24.53998 | 118.12173 | 74 ft | 111 kts | 51° |
| 2026-05-04 14:33 | 24.54603 | 118.13025 | 97 ft | 165 kts | 52° |
| 2026-05-04 14:33 | 24.55283 | 118.14002 | 821 ft | 160 kts | 52° |
| 2026-05-04 14:34 | 24.55967 | 118.14977 | 1440 ft | 169 kts | 52° |
| 2026-05-04 14:34 | 24.56746 | 118.16043 | 1875 ft | 187 kts | 51° |
| 2026-05-04 14:34 | 24.57616 | 118.17235 | 2209 ft | 209 kts | 51° |
| 2026-05-04 14:34 | 24.58544 | 118.18541 | 2668 ft | 224 kts | 52° |
| 2026-05-04 14:35 | 24.59514 | 118.19913 | 3365 ft | 228 kts | 51° |
| 2026-05-04 14:35 | 24.60499 | 118.21271 | 4078 ft | 233 kts | 49° |
| 2026-05-04 14:35 | 24.61618 | 118.22591 | 4720 ft | 240 kts | 45° |
| 2026-05-04 14:35 | 24.62809 | 118.23911 | 5357 ft | 246 kts | 45° |
| 2026-05-04 14:36 | 24.64023 | 118.25274 | 5974 ft | 254 kts | 45° |
| 2026-05-04 14:36 | 24.65261 | 118.26696 | 6595 ft | 260 kts | 46° |
| 2026-05-04 14:36 | 24.66526 | 118.28160 | 7234 ft | 266 kts | 45° |
| 2026-05-04 14:36 | 24.67819 | 118.29642 | 7875 ft | 271 kts | 45° |
| 2026-05-04 14:37 | 24.69145 | 118.31148 | 8473 ft | 277 kts | 45° |
| 2026-05-04 14:37 | 24.70496 | 118.32690 | 9038 ft | 283 kts | 45° |
| 2026-05-04 14:37 | 24.71875 | 118.34270 | 9606 ft | 289 kts | 44° |
| 2026-05-04 14:37 | 24.73277 | 118.35880 | 10171 ft | 294 kts | 44° |
| 2026-05-04 14:38 | 24.76071 | 118.39079 | 10862 ft | 320 kts | 44° |
| 2026-05-04 14:38 | 24.77660 | 118.40897 | 11078 ft | 339 kts | 44° |
| 2026-05-04 14:38 | 24.79338 | 118.42823 | 11301 ft | 356 kts | 44° |
| 2026-05-04 14:39 | 24.81093 | 118.44839 | 11521 ft | 373 kts | 44° |
| 2026-05-04 14:39 | 24.82922 | 118.46944 | 11738 ft | 390 kts | 44° |
| 2026-05-04 14:39 | 24.84832 | 118.49143 | 11952 ft | 405 kts | 44° |
| 2026-05-04 14:40 | 24.88812 | 118.53724 | 12867 ft | 417 kts | 44° |
| 2026-05-04 14:40 | 24.90827 | 118.56047 | 13424 ft | 421 kts | 44° |
| 2026-05-04 14:40 | 24.92857 | 118.58385 | 13933 ft | 425 kts | 44° |
| 2026-05-04 14:40 | 24.94912 | 118.60752 | 14437 ft | 429 kts | 43° |
| 2026-05-04 14:41 | 24.96982 | 118.63137 | 14925 ft | 433 kts | 43° |
| 2026-05-04 14:41 | 24.99067 | 118.65539 | 15415 ft | 436 kts | 43° |
| 2026-05-04 14:41 | 25.03290 | 118.70410 | 16349 ft | 443 kts | 43° |
| 2026-05-04 14:42 | 25.07582 | 118.75372 | 17216 ft | 450 kts | 43° |
| 2026-05-04 14:42 | 25.09754 | 118.77882 | 17651 ft | 454 kts | 43° |
| 2026-05-04 14:42 | 25.11940 | 118.80412 | 18046 ft | 457 kts | 43° |
| 2026-05-04 14:43 | 25.14140 | 118.82959 | 18471 ft | 460 kts | 43° |
| 2026-05-04 14:43 | 25.16355 | 118.85525 | 18862 ft | 464 kts | 43° |
| 2026-05-04 14:43 | 25.18595 | 118.88119 | 19234 ft | 467 kts | 43° |
| 2026-05-04 14:43 | 25.20843 | 118.90724 | 19610 ft | 471 kts | 43° |
| 2026-05-04 14:44 | 25.23104 | 118.93348 | 19985 ft | 474 kts | 43° |
| 2026-05-04 14:44 | 25.25389 | 118.96000 | 20351 ft | 476 kts | 43° |
| 2026-05-04 14:44 | 25.27681 | 118.98664 | 20700 ft | 480 kts | 43° |
| 2026-05-04 14:44 | 25.29988 | 119.01346 | 20869 ft | 484 kts | 43° |
| 2026-05-04 14:45 | 25.32308 | 119.04047 | 20860 ft | 483 kts | 43° |
| 2026-05-04 14:45 | 25.34593 | 119.06705 | 20987 ft | 485 kts | 43° |
| 2026-05-04 14:45 | 25.36918 | 119.09410 | 21369 ft | 486 kts | 43° |
| 2026-05-04 14:45 | 25.39279 | 119.12162 | 21708 ft | 489 kts | 43° |
| 2026-05-04 14:46 | 25.41595 | 119.14859 | 22013 ft | 492 kts | 43° |
| 2026-05-04 14:46 | 25.43958 | 119.17613 | 22329 ft | 494 kts | 43° |
| 2026-05-04 14:46 | 25.46329 | 119.20380 | 22619 ft | 497 kts | 43° |
| 2026-05-04 14:46 | 25.48708 | 119.23160 | 22904 ft | 500 kts | 43° |
| 2026-05-04 14:47 | 25.51107 | 119.25964 | 23181 ft | 503 kts | 43° |
| 2026-05-04 14:47 | 25.53519 | 119.28787 | 23441 ft | 506 kts | 43° |
| 2026-05-04 14:47 | 25.55945 | 119.31628 | 23717 ft | 508 kts | 43° |
| 2026-05-04 14:47 | 25.58376 | 119.34495 | 23964 ft | 511 kts | 44° |
| 2026-05-04 14:48 | 25.60806 | 119.37379 | 24218 ft | 514 kts | 44° |
| 2026-05-04 14:48 | 25.63253 | 119.40284 | 24455 ft | 516 kts | 44° |
| 2026-05-04 14:48 | 25.65704 | 119.43187 | 24764 ft | 517 kts | 44° |
| 2026-05-04 14:48 | 25.68169 | 119.46104 | 25078 ft | 518 kts | 44° |
| 2026-05-04 14:49 | 25.70637 | 119.49027 | 25375 ft | 519 kts | 44° |
| 2026-05-04 14:49 | 25.73091 | 119.51934 | 25690 ft | 520 kts | 44° |
| 2026-05-04 14:49 | 25.75562 | 119.54857 | 25977 ft | 521 kts | 43° |
| 2026-05-04 14:49 | 25.78230 | 119.57537 | 26218 ft | 516 kts | 31° |
| 2026-05-04 14:50 | 25.81286 | 119.59579 | 26592 ft | 508 kts | 23° |
| 2026-05-04 14:50 | 25.84433 | 119.61374 | 26814 ft | 509 kts | 21° |
| 2026-05-04 14:50 | 25.87612 | 119.63089 | 26794 ft | 509 kts | 20° |
| 2026-05-04 14:50 | 25.90806 | 119.64813 | 26793 ft | 510 kts | 21° |
| 2026-05-04 14:51 | 25.93979 | 119.66587 | 26783 ft | 511 kts | 21° |
| 2026-05-04 14:51 | 25.97141 | 119.68397 | 26778 ft | 510 kts | 22° |
| 2026-05-04 14:51 | 26.00290 | 119.70205 | 26784 ft | 510 kts | 22° |
| 2026-05-04 14:51 | 26.03451 | 119.72001 | 26781 ft | 511 kts | 21° |
| 2026-05-04 14:52 | 26.06670 | 119.73632 | 26751 ft | 504 kts | 13° |
| 2026-05-04 14:52 | 26.10043 | 119.74514 | 26758 ft | 494 kts | 359° |
| 2026-05-04 14:52 | 26.13439 | 119.74554 | 26814 ft | 489 kts | 349° |
| 2026-05-04 14:52 | 26.16855 | 119.74273 | 26818 ft | 492 kts | 347° |
| 2026-05-04 14:53 | 26.20256 | 119.73949 | 26793 ft | 487 kts | 347° |
| 2026-05-04 14:53 | 26.23621 | 119.73674 | 26786 ft | 485 kts | 348° |
| 2026-05-04 14:53 | 26.26988 | 119.73463 | 26788 ft | 486 kts | 349° |
| 2026-05-04 14:53 | 26.30369 | 119.73291 | 26781 ft | 486 kts | 349° |
| 2026-05-04 14:54 | 26.33757 | 119.73116 | 26778 ft | 486 kts | 349° |
| 2026-05-04 14:54 | 26.37125 | 119.72918 | 26776 ft | 485 kts | 348° |
| 2026-05-04 14:54 | 26.40499 | 119.72694 | 26773 ft | 484 kts | 348° |
| 2026-05-04 14:54 | 26.43827 | 119.72585 | 26765 ft | 491 kts | 354° |
| 2026-05-04 14:55 | 26.47242 | 119.73133 | 26739 ft | 503 kts | 8° |
| 2026-05-04 14:55 | 26.50533 | 119.74600 | 26705 ft | 516 kts | 24° |
| 2026-05-04 14:55 | 26.53578 | 119.76711 | 26762 ft | 517 kts | 28° |
| 2026-05-04 14:55 | 26.56559 | 119.78946 | 26764 ft | 517 kts | 29° |
| 2026-05-04 14:56 | 26.59555 | 119.81196 | 26742 ft | 517 kts | 28° |
| 2026-05-04 14:56 | 26.62571 | 119.83374 | 26725 ft | 517 kts | 27° |
| 2026-05-04 14:56 | 26.65631 | 119.85492 | 26710 ft | 517 kts | 26° |
| 2026-05-04 14:56 | 26.68703 | 119.87580 | 26715 ft | 517 kts | 26° |
| 2026-05-04 14:57 | 26.71771 | 119.89689 | 26728 ft | 518 kts | 26° |
| 2026-05-04 14:57 | 26.74829 | 119.91844 | 26724 ft | 519 kts | 27° |
| 2026-05-04 14:57 | 26.77857 | 119.94013 | 26720 ft | 513 kts | 27° |
| 2026-05-04 14:57 | 26.80820 | 119.96142 | 26643 ft | 501 kts | 27° |
| 2026-05-04 14:58 | 26.83742 | 119.98223 | 26688 ft | 495 kts | 26° |
| 2026-05-04 14:58 | 26.86656 | 120.00272 | 26734 ft | 494 kts | 26° |
| 2026-05-04 14:58 | 26.89571 | 120.02307 | 26738 ft | 495 kts | 26° |
| 2026-05-04 14:58 | 26.92490 | 120.04353 | 26765 ft | 495 kts | 26° |
| 2026-05-04 14:59 | 26.95395 | 120.06411 | 26743 ft | 495 kts | 26° |
| 2026-05-04 14:59 | 26.98309 | 120.08488 | 26747 ft | 495 kts | 27° |
| 2026-05-04 14:59 | 27.04119 | 120.12635 | 26750 ft | 495 kts | 26° |
| 2026-05-04 15:00 | 27.07021 | 120.14694 | 26739 ft | 495 kts | 26° |
| 2026-05-04 15:00 | 27.09933 | 120.16758 | 26764 ft | 493 kts | 26° |
| 2026-05-04 15:00 | 27.12833 | 120.18818 | 26786 ft | 495 kts | 26° |
| 2026-05-04 15:01 | 27.18708 | 120.22970 | 26810 ft | 506 kts | 26° |
| 2026-05-04 15:01 | 27.21701 | 120.25071 | 26781 ft | 510 kts | 26° |
| 2026-05-04 15:01 | 27.24716 | 120.27194 | 26771 ft | 514 kts | 26° |
| 2026-05-04 15:01 | 27.27757 | 120.29344 | 26770 ft | 517 kts | 26° |
| 2026-05-04 15:02 | 27.30765 | 120.31477 | 26759 ft | 518 kts | 26° |
| 2026-05-04 15:02 | 27.33851 | 120.33667 | 26758 ft | 517 kts | 26° |
| 2026-05-04 15:02 | 27.36854 | 120.35797 | 26755 ft | 517 kts | 26° |
| 2026-05-04 15:02 | 27.39897 | 120.37954 | 26752 ft | 517 kts | 26° |
| 2026-05-04 15:03 | 27.42942 | 120.40115 | 26749 ft | 517 kts | 26° |
| 2026-05-04 15:03 | 27.45975 | 120.42274 | 26752 ft | 516 kts | 26° |
| 2026-05-04 15:03 | 27.49010 | 120.44440 | 26750 ft | 517 kts | 26° |
| 2026-05-04 15:03 | 27.52060 | 120.46614 | 26757 ft | 518 kts | 26° |
| 2026-05-04 15:04 | 27.55105 | 120.48778 | 26780 ft | 517 kts | 26° |
| 2026-05-04 15:04 | 27.58141 | 120.50939 | 26779 ft | 517 kts | 26° |
| 2026-05-04 15:04 | 27.61183 | 120.53111 | 26771 ft | 517 kts | 26° |
| 2026-05-04 15:04 | 27.64216 | 120.55281 | 26753 ft | 517 kts | 26° |
| 2026-05-04 15:05 | 27.67253 | 120.57452 | 26729 ft | 516 kts | 26° |
| 2026-05-04 15:05 | 27.70279 | 120.59616 | 26717 ft | 515 kts | 26° |
| 2026-05-04 15:05 | 27.73357 | 120.61673 | 26679 ft | 509 kts | 19° |
| 2026-05-04 15:05 | 27.76608 | 120.63049 | 26690 ft | 493 kts | 6° |
| 2026-05-04 15:06 | 27.79950 | 120.63632 | 26724 ft | 480 kts | 356° |
| 2026-05-04 15:06 | 27.83267 | 120.63912 | 26712 ft | 478 kts | 354° |
| 2026-05-04 15:06 | 27.86594 | 120.64126 | 26690 ft | 479 kts | 354° |
| 2026-05-04 15:07 | 27.93265 | 120.64654 | 26691 ft | 482 kts | 356° |
| 2026-05-04 15:07 | 27.96608 | 120.64990 | 26689 ft | 483 kts | 356° |
| 2026-05-04 15:07 | 27.98820 | 120.65213 | 26697 ft | 483 kts | 356° |
| 2026-05-04 15:07 | 28.02169 | 120.65541 | 26686 ft | 483 kts | 356° |
| 2026-05-04 15:08 | 28.06591 | 120.65962 | 26617 ft | 471 kts | 356° |
| 2026-05-04 15:08 | 28.08746 | 120.66173 | 26361 ft | 467 kts | 356° |
| 2026-05-04 15:08 | 28.11981 | 120.66488 | 25678 ft | 467 kts | 356° |
| 2026-05-04 15:08 | 28.16350 | 120.66904 | 24316 ft | 476 kts | 357° |
| 2026-05-04 15:09 | 28.18545 | 120.67114 | 23706 ft | 479 kts | 358° |
| 2026-05-04 15:09 | 28.22969 | 120.67558 | 22880 ft | 474 kts | 358° |
| 2026-05-04 15:09 | 28.25136 | 120.67780 | 22465 ft | 471 kts | 358° |
| 2026-05-04 15:10 | 28.31629 | 120.68423 | 21184 ft | 465 kts | 359° |
| 2026-05-04 15:10 | 28.34839 | 120.68735 | 20914 ft | 463 kts | 359° |
| 2026-05-04 15:10 | 28.41271 | 120.69360 | 20892 ft | 463 kts | 359° |
| 2026-05-04 15:11 | 28.44475 | 120.69677 | 20900 ft | 463 kts | 359° |
| 2026-05-04 15:11 | 28.47687 | 120.69999 | 20925 ft | 463 kts | 359° |
| 2026-05-04 15:11 | 28.50899 | 120.70325 | 20947 ft | 463 kts | 359° |
| 2026-05-04 15:11 | 28.54108 | 120.70650 | 20955 ft | 463 kts | 359° |
| 2026-05-04 15:12 | 28.57316 | 120.70973 | 20998 ft | 463 kts | 359° |
| 2026-05-04 15:12 | 28.60525 | 120.71297 | 21116 ft | 463 kts | 359° |
| 2026-05-04 15:12 | 28.63730 | 120.71620 | 21191 ft | 459 kts | 359° |
| 2026-05-04 15:12 | 28.66882 | 120.71943 | 20939 ft | 451 kts | 359° |
| 2026-05-04 15:13 | 28.70016 | 120.72261 | 20819 ft | 453 kts | 359° |
| 2026-05-04 15:13 | 28.73169 | 120.72586 | 20831 ft | 458 kts | 359° |
| 2026-05-04 15:13 | 28.76368 | 120.72935 | 20833 ft | 462 kts | 360° |
| 2026-05-04 15:13 | 28.79555 | 120.73299 | 20838 ft | 463 kts | 360° |
| 2026-05-04 15:14 | 28.82769 | 120.73667 | 20842 ft | 463 kts | 360° |
| 2026-05-04 15:14 | 28.85973 | 120.74024 | 20842 ft | 462 kts | 360° |
| 2026-05-04 15:14 | 28.89132 | 120.74360 | 20839 ft | 462 kts | 359° |
| 2026-05-04 15:14 | 28.92332 | 120.74681 | 20833 ft | 462 kts | 359° |
| 2026-05-04 15:15 | 28.95526 | 120.74994 | 20834 ft | 461 kts | 359° |
| 2026-05-04 15:15 | 28.98724 | 120.75314 | 20835 ft | 461 kts | 359° |
| 2026-05-04 15:15 | 29.01921 | 120.75644 | 20835 ft | 461 kts | 359° |
| 2026-05-04 15:16 | 29.08293 | 120.76313 | 20845 ft | 460 kts | 359° |
| 2026-05-04 15:16 | 29.11479 | 120.76644 | 20842 ft | 460 kts | 359° |
| 2026-05-04 15:16 | 29.17855 | 120.77298 | 20839 ft | 460 kts | 359° |
| 2026-05-04 15:17 | 29.21043 | 120.77626 | 20838 ft | 460 kts | 359° |
| 2026-05-04 15:17 | 29.27416 | 120.78286 | 20839 ft | 460 kts | 360° |
| 2026-05-04 15:17 | 29.30593 | 120.78616 | 20839 ft | 460 kts | 360° |
| 2026-05-04 15:18 | 29.33784 | 120.78948 | 20838 ft | 459 kts | 360° |
| 2026-05-04 15:18 | 29.36971 | 120.79279 | 20838 ft | 459 kts | 360° |
| 2026-05-04 15:18 | 29.40148 | 120.79608 | 20837 ft | 459 kts | 360° |
| 2026-05-04 15:19 | 29.46520 | 120.80267 | 20837 ft | 459 kts | 360° |
| 2026-05-04 15:19 | 29.49698 | 120.80599 | 20837 ft | 459 kts | 360° |
| 2026-05-04 15:19 | 29.56046 | 120.81626 | 20819 ft | 467 kts | 11° |
| 2026-05-04 15:20 | 29.59072 | 120.83054 | 20812 ft | 476 kts | 24° |
| 2026-05-04 15:20 | 29.61775 | 120.85299 | 20815 ft | 484 kts | 39° |
| 2026-05-04 15:20 | 29.63962 | 120.88261 | 20821 ft | 490 kts | 53° |
| 2026-05-04 15:20 | 29.65815 | 120.91555 | 20845 ft | 491 kts | 56° |
| 2026-05-04 15:21 | 29.67623 | 120.94903 | 20846 ft | 491 kts | 56° |
| 2026-05-04 15:21 | 29.69416 | 120.98178 | 20844 ft | 491 kts | 55° |
| 2026-05-04 15:21 | 29.73198 | 121.04732 | 20864 ft | 492 kts | 53° |
| 2026-05-04 15:22 | 29.75112 | 121.07990 | 20832 ft | 492 kts | 53° |
| 2026-05-04 15:22 | 29.77011 | 121.11274 | 20828 ft | 493 kts | 54° |
| 2026-05-04 15:22 | 29.80711 | 121.17812 | 20593 ft | 477 kts | 54° |
| 2026-05-04 15:23 | 29.82505 | 121.20991 | 20033 ft | 472 kts | 54° |
| 2026-05-04 15:23 | 29.84309 | 121.24155 | 19223 ft | 472 kts | 54° |
| 2026-05-04 15:23 | 29.86114 | 121.27300 | 18598 ft | 468 kts | 54° |
| 2026-05-04 15:23 | 29.87889 | 121.30403 | 18035 ft | 461 kts | 54° |
| 2026-05-04 15:24 | 29.92375 | 121.35340 | 16880 ft | 438 kts | 27° |
| 2026-05-04 15:24 | 29.97680 | 121.38575 | 15700 ft | 426 kts | 24° |
| 2026-05-04 15:25 | 30.00308 | 121.40116 | 15111 ft | 421 kts | 24° |
| 2026-05-04 15:25 | 30.02890 | 121.41690 | 14549 ft | 416 kts | 26° |
| 2026-05-04 15:25 | 30.05408 | 121.43280 | 13986 ft | 411 kts | 26° |
| 2026-05-04 15:26 | 30.10352 | 121.46443 | 12831 ft | 401 kts | 26° |
| 2026-05-04 15:26 | 30.12784 | 121.47973 | 12283 ft | 397 kts | 26° |
| 2026-05-04 15:26 | 30.17602 | 121.50976 | 11934 ft | 392 kts | 27° |
| 2026-05-04 15:27 | 30.20004 | 121.52480 | 11936 ft | 392 kts | 27° |
| 2026-05-04 15:27 | 30.24796 | 121.55498 | 11929 ft | 392 kts | 27° |
| 2026-05-04 15:28 | 30.29444 | 121.58469 | 11652 ft | 366 kts | 27° |
| 2026-05-04 15:28 | 30.31614 | 121.59891 | 11444 ft | 350 kts | 28° |
| 2026-05-04 15:28 | 30.35653 | 121.62527 | 11016 ft | 322 kts | 27° |
| 2026-05-04 15:29 | 30.37577 | 121.63812 | 10843 ft | 308 kts | 29° |
| 2026-05-04 15:30 | 30.44520 | 121.68679 | 9532 ft | 286 kts | 30° |
| 2026-05-04 15:30 | 30.49565 | 121.72227 | 8425 ft | 280 kts | 30° |
| 2026-05-04 15:31 | 30.52890 | 121.74568 | 7657 ft | 278 kts | 30° |
| 2026-05-04 15:31 | 30.54541 | 121.75728 | 7273 ft | 278 kts | 30° |
| 2026-05-04 15:32 | 30.59780 | 121.78331 | 6129 ft | 273 kts | 11° |
| 2026-05-04 15:32 | 30.63510 | 121.79229 | 5900 ft | 274 kts | 12° |
| 2026-05-04 15:33 | 30.67226 | 121.80264 | 5906 ft | 275 kts | 13° |
| 2026-05-04 15:34 | 30.72810 | 121.81779 | 5904 ft | 275 kts | 12° |
| 2026-05-04 15:34 | 30.74677 | 121.82287 | 5908 ft | 275 kts | 12° |
| 2026-05-04 15:34 | 30.78404 | 121.83306 | 5900 ft | 275 kts | 12° |
| 2026-05-04 15:35 | 30.82134 | 121.84324 | 5893 ft | 275 kts | 12° |
| 2026-05-04 15:35 | 30.83997 | 121.84830 | 5893 ft | 275 kts | 12° |
| 2026-05-04 15:35 | 30.85867 | 121.85340 | 5893 ft | 276 kts | 12° |
| 2026-05-04 15:36 | 30.89603 | 121.86361 | 5897 ft | 276 kts | 12° |
| 2026-05-04 15:36 | 30.91468 | 121.86870 | 5885 ft | 276 kts | 12° |
| 2026-05-04 15:36 | 30.93296 | 121.87460 | 5876 ft | 277 kts | 21° |
| 2026-05-04 15:37 | 30.95035 | 121.88488 | 5892 ft | 278 kts | 29° |
| 2026-05-04 15:37 | 30.96684 | 121.89671 | 5895 ft | 278 kts | 31° |
| 2026-05-04 15:37 | 30.98326 | 121.90875 | 5894 ft | 279 kts | 30° |
| 2026-05-04 15:37 | 30.99984 | 121.92031 | 5893 ft | 278 kts | 29° |
| 2026-05-04 15:38 | 31.01664 | 121.93158 | 5893 ft | 278 kts | 28° |
| 2026-05-04 15:38 | 31.03316 | 121.94270 | 5894 ft | 278 kts | 29° |
| 2026-05-04 15:38 | 31.04983 | 121.95413 | 5892 ft | 278 kts | 30° |
| 2026-05-04 15:38 | 31.06653 | 121.96560 | 5891 ft | 278 kts | 28° |
| 2026-05-04 15:39 | 31.08465 | 121.97280 | 5865 ft | 276 kts | 3° |
| 2026-05-04 15:39 | 31.10323 | 121.96963 | 5868 ft | 268 kts | 339° |
| 2026-05-04 15:39 | 31.13633 | 121.95405 | 5732 ft | 245 kts | 338° |
| 2026-05-04 15:40 | 31.15232 | 121.94786 | 5512 ft | 240 kts | 342° |
| 2026-05-04 15:40 | 31.16829 | 121.94237 | 5185 ft | 239 kts | 342° |
| 2026-05-04 15:40 | 31.18424 | 121.93661 | 4833 ft | 240 kts | 340° |
| 2026-05-04 15:40 | 31.20008 | 121.93046 | 4479 ft | 240 kts | 340° |
| 2026-05-04 15:41 | 31.21595 | 121.92434 | 4127 ft | 241 kts | 341° |
| 2026-05-04 15:41 | 31.23194 | 121.91838 | 3779 ft | 241 kts | 341° |
| 2026-05-04 15:41 | 31.24799 | 121.91242 | 3427 ft | 242 kts | 341° |
| 2026-05-04 15:41 | 31.26402 | 121.90638 | 3084 ft | 243 kts | 341° |
| 2026-05-04 15:42 | 31.28012 | 121.90027 | 2736 ft | 243 kts | 341° |
| 2026-05-04 15:42 | 31.29615 | 121.89422 | 2430 ft | 242 kts | 342° |
| 2026-05-04 15:42 | 31.31189 | 121.88751 | 2119 ft | 240 kts | 330° |
| 2026-05-04 15:42 | 31.32409 | 121.87490 | 1958 ft | 234 kts | 301° |
| 2026-05-04 15:43 | 31.32968 | 121.85676 | 1973 ft | 238 kts | 273° |
| 2026-05-04 15:43 | 31.32779 | 121.83831 | 1976 ft | 227 kts | 249° |
| 2026-05-04 15:43 | 31.32232 | 121.82151 | 1986 ft | 217 kts | 245° |
| 2026-05-04 15:43 | 31.31659 | 121.80566 | 1992 ft | 205 kts | 244° |
| 2026-05-04 15:44 | 31.31018 | 121.79086 | 1982 ft | 202 kts | 229° |
| 2026-05-04 15:44 | 31.29963 | 121.78077 | 1996 ft | 198 kts | 208° |
| 2026-05-04 15:44 | 31.28726 | 121.77440 | 1981 ft | 196 kts | 187° |
| 2026-05-04 15:44 | 31.27353 | 121.77438 | 2000 ft | 197 kts | 172° |
| 2026-05-04 15:45 | 31.26026 | 121.77811 | 2000 ft | 197 kts | 164° |
| 2026-05-04 15:45 | 31.24746 | 121.78288 | 1885 ft | 186 kts | 162° |
| 2026-05-04 15:45 | 31.23557 | 121.78747 | 1619 ft | 173 kts | 163° |
| 2026-05-04 15:45 | 31.22458 | 121.79163 | 1432 ft | 158 kts | 162° |
| 2026-05-04 15:46 | 31.21452 | 121.79544 | 1209 ft | 146 kts | 162° |
| 2026-05-04 15:46 | 31.20494 | 121.79906 | 1008 ft | 144 kts | 162° |
| 2026-05-04 15:46 | 31.19541 | 121.80268 | 795 ft | 144 kts | 162° |
| 2026-05-04 15:46 | 31.18591 | 121.80628 | 601 ft | 143 kts | 162° |
| 2026-05-04 15:47 | 31.17645 | 121.80983 | 392 ft | 143 kts | 162° |
| 2026-05-04 15:47 | 31.16703 | 121.81340 | 211 ft | 142 kts | 162° |
| 2026-05-04 15:47 | 31.15764 | 121.81698 | 50 ft | 142 kts | 162° |
| 2026-05-04 15:47 | 31.14880 | 121.82032 | 25 ft | 117 kts | 162° |
| 2026-05-04 15:48 | 31.14287 | 121.82255 | 24 ft | 57 kts | 162° |
| 2026-05-04 15:48 | 31.14119 | 121.82303 | 25 ft | 16 kts | 190° |